Station Historical Data
Daily Summary for March 24, 2012 Units:  Both    English   Metric
« Previous Day
Next Day »
Daily Weekly Monthly Yearly Custom
  High: Low: Average:
Temperature: 64.9 °F /  18.3 °C 50.2 °F /  10.1 °C 56.7 °F /  13.7 °C
Dew Point: 54.8 °F /  12.7 °C 45.6 °F /  7.6 °C 48.9 °F /  9.4 °C
Humidity: 94% 57% 76%
Wind Speed: 15.0mph /  24.1km/h - 3.6mph /  5.8km/h
Wind Gust: 24.0mph /  38.6km/h - -
Wind- - WSW
Pressure: 29.92 in /  1013.1 hPa 29.82 in /  1009.7 hPa -
Precipitation: 0.24 in /  6.1 mm    
Historical Graphs
 
 
Tabular Data for March 24, 2012
Time Temperature Dew Point Pressure Wind Wind Speed Wind Gust Humidity Rainfall Rate (Hourly) Conditions
00:00 59.1 °F /  15.1 °C 46.5 °F /  8.1 °C 29.86in /  1011.1hPa WSW 4.0mph /  6.4km/h 6.0mph /  9.7km/h 63% 0.00in /  0mm
00:06 58.9 °F /  14.9 °C 46.3 °F /  7.9 °C 29.87in /  1011.4hPa SW 4.0mph /  6.4km/h 5.0mph /  8km/h 63% 0.00in /  0mm
00:11 58.7 °F /  14.8 °C 46.6 °F /  8.1 °C 29.87in /  1011.4hPa West 3.0mph /  4.8km/h 5.0mph /  8km/h 64% 0.00in /  0mm
00:16 58.5 °F /  14.7 °C 46.4 °F /  8 °C 29.86in /  1011.1hPa West 2.0mph /  3.2km/h 3.0mph /  4.8km/h 64% 0.00in /  0mm
00:21 58.5 °F /  14.7 °C 46.8 °F /  8.2 °C 29.86in /  1011.1hPa West 3.0mph /  4.8km/h 7.0mph /  11.3km/h 65% 0.00in /  0mm
00:26 58.3 °F /  14.6 °C 47.0 °F /  8.3 °C 29.86in /  1011.1hPa West 2.0mph /  3.2km/h 3.0mph /  4.8km/h 66% 0.00in /  0mm
00:31 58.2 °F /  14.6 °C 46.9 °F /  8.3 °C 29.86in /  1011.1hPa WSW 1.0mph /  1.6km/h 4.0mph /  6.4km/h 66% 0.00in /  0mm
00:36 58.0 °F /  14.4 °C 46.7 °F /  8.2 °C 29.86in /  1011.1hPa WSW 4.0mph /  6.4km/h 5.0mph /  8km/h 66% 0.00in /  0mm
00:41 57.8 °F /  14.3 °C 46.9 °F /  8.3 °C 29.86in /  1011.1hPa WSW 1.0mph /  1.6km/h 3.0mph /  4.8km/h 67% 0.00in /  0mm
00:46 57.4 °F /  14.1 °C 46.9 °F /  8.3 °C 29.87in /  1011.4hPa West 2.0mph /  3.2km/h 2.0mph /  3.2km/h 68% 0.00in /  0mm
00:51 57.3 °F /  14.1 °C 46.8 °F /  8.2 °C 29.86in /  1011.1hPa West 2.0mph /  3.2km/h 2.0mph /  3.2km/h 68% 0.00in /  0mm
00:56 57.1 °F /  13.9 °C 46.7 °F /  8.2 °C 29.86in /  1011.1hPa West 1.0mph /  1.6km/h 2.0mph /  3.2km/h 68% 0.00in /  0mm
01:01 57.1 °F /  13.9 °C 47.0 °F /  8.3 °C 29.86in /  1011.1hPa SW 2.0mph /  3.2km/h 3.0mph /  4.8km/h 69% 0.00in /  0mm
01:06 56.9 °F /  13.8 °C 46.8 °F /  8.2 °C 29.86in /  1011.1hPa WSW 1.0mph /  1.6km/h 3.0mph /  4.8km/h 69% 0.00in /  0mm
01:11 56.7 °F /  13.7 °C 46.7 °F /  8.2 °C 29.86in /  1011.1hPa WSW 1.0mph /  1.6km/h 3.0mph /  4.8km/h 69% 0.00in /  0mm
01:16 56.6 °F /  13.7 °C 46.6 °F /  8.1 °C 29.86in /  1011.1hPa WSW 2.0mph /  3.2km/h 2.0mph /  3.2km/h 69% 0.00in /  0mm
01:21 56.6 °F /  13.7 °C 46.9 °F /  8.3 °C 29.86in /  1011.1hPa WSW 1.0mph /  1.6km/h 4.0mph /  6.4km/h 70% 0.00in /  0mm
01:26 56.3 °F /  13.5 °C 46.7 °F /  8.2 °C 29.86in /  1011.1hPa SW 1.0mph /  1.6km/h 2.0mph /  3.2km/h 70% 0.00in /  0mm
01:32 55.8 °F /  13.2 °C 46.5 °F /  8.1 °C 29.86in /  1011.1hPa SW 1.0mph /  1.6km/h 2.0mph /  3.2km/h 71% 0.00in /  0mm
01:37 55.4 °F /  13 °C 46.5 °F /  8.1 °C 29.86in /  1011.1hPa SW 1.0mph /  1.6km/h 1.0mph /  1.6km/h 72% 0.00in /  0mm
01:42 55.2 °F /  12.9 °C 46.7 °F /  8.2 °C 29.86in /  1011.1hPa SSW 2.0mph /  3.2km/h 2.0mph /  3.2km/h 73% 0.00in /  0mm
01:47 55.0 °F /  12.8 °C 46.5 °F /  8.1 °C 29.86in /  1011.1hPa South 1.0mph /  1.6km/h 1.0mph /  1.6km/h 73% 0.00in /  0mm
01:52 54.7 °F /  12.6 °C 46.2 °F /  7.9 °C 29.86in /  1011.1hPa Calm   1.0mph /  1.6km/h 73% 0.00in /  0mm
01:57 54.5 °F /  12.5 °C 46.4 °F /  8 °C 29.86in /  1011.1hPa Calm   1.0mph /  1.6km/h 74% 0.00in /  0mm
02:02 54.3 °F /  12.4 °C 46.2 °F /  7.9 °C 29.86in /  1011.1hPa Calm   1.0mph /  1.6km/h 74% 0.00in /  0mm
02:07 54.3 °F /  12.4 °C 46.6 °F /  8.1 °C 29.86in /  1011.1hPa SSW 1.0mph /  1.6km/h 1.0mph /  1.6km/h 75% 0.00in /  0mm
02:12 54.2 °F /  12.3 °C 46.5 °F /  8.1 °C 29.86in /  1011.1hPa Calm   1.0mph /  1.6km/h 75% 0.00in /  0mm
02:17 54.0 °F /  12.2 °C 46.3 °F /  7.9 °C 29.86in /  1011.1hPa SSW 1.0mph /  1.6km/h 1.0mph /  1.6km/h 75% 0.00in /  0mm
02:22 53.9 °F /  12.2 °C 46.2 °F /  7.9 °C 29.85in /  1010.7hPa SSW 1.0mph /  1.6km/h 1.0mph /  1.6km/h 75% 0.00in /  0mm
02:27 54.1 °F /  12.3 °C 46.4 °F /  8 °C 29.86in /  1011.1hPa SSE 1.0mph /  1.6km/h 1.0mph /  1.6km/h 75% 0.00in /  0mm
02:32 54.1 °F /  12.3 °C 46.4 °F /  8 °C 29.86in /  1011.1hPa Calm     75% 0.00in /  0mm
02:37 54.1 °F /  12.3 °C 46.4 °F /  8 °C 29.85in /  1010.7hPa Calm     75% 0.00in /  0mm
02:42 54.0 °F /  12.2 °C 46.3 °F /  7.9 °C 29.85in /  1010.7hPa Calm     75% 0.00in /  0mm
02:47 53.9 °F /  12.2 °C 46.5 °F /  8.1 °C 29.85in /  1010.7hPa Calm   1.0mph /  1.6km/h 76% 0.00in /  0mm
02:52 53.7 °F /  12.1 °C 46.3 °F /  7.9 °C 29.85in /  1010.7hPa Calm   1.0mph /  1.6km/h 76% 0.00in /  0mm
02:57 53.4 °F /  11.9 °C 46.4 °F /  8 °C 29.85in /  1010.7hPa South 1.0mph /  1.6km/h 1.0mph /  1.6km/h 77% 0.00in /  0mm
03:02 53.2 °F /  11.8 °C 46.2 °F /  7.9 °C 29.85in /  1010.7hPa Calm   1.0mph /  1.6km/h 77% 0.00in /  0mm
03:07 52.8 °F /  11.6 °C 46.1 °F /  7.8 °C 29.85in /  1010.7hPa Calm   1.0mph /  1.6km/h 78% 0.00in /  0mm
03:12 52.7 °F /  11.5 °C 46.4 °F /  8 °C 29.85in /  1010.7hPa Calm   1.0mph /  1.6km/h 79% 0.00in /  0mm
03:17 52.6 °F /  11.4 °C 46.3 °F /  7.9 °C 29.85in /  1010.7hPa Calm     79% 0.00in /  0mm
03:22 52.4 °F /  11.3 °C 46.1 °F /  7.8 °C 29.85in /  1010.7hPa Calm     79% 0.00in /  0mm
03:27 52.1 °F /  11.2 °C 46.1 °F /  7.8 °C 29.85in /  1010.7hPa Calm     80% 0.00in /  0mm
03:32 51.8 °F /  11 °C 46.2 °F /  7.9 °C 29.85in /  1010.7hPa Calm     81% 0.00in /  0mm
03:37 51.6 °F /  10.9 °C 46.0 °F /  7.8 °C 29.85in /  1010.7hPa Calm     81% 0.00in /  0mm
03:42 51.2 °F /  10.7 °C 45.6 °F /  7.6 °C 29.85in /  1010.7hPa Calm     81% 0.00in /  0mm
03:47 50.6 °F /  10.3 °C 45.6 °F /  7.6 °C 29.85in /  1010.7hPa Calm     83% 0.00in /  0mm
03:52 50.2 °F /  10.1 °C 45.6 °F /  7.6 °C 29.85in /  1010.7hPa Calm     84% 0.00in /  0mm
03:57 50.3 °F /  10.2 °C 46.0 °F /  7.8 °C 29.85in /  1010.7hPa SSE 1.0mph /  1.6km/h 1.0mph /  1.6km/h 85% 0.00in /  0mm
04:02 50.6 °F /  10.3 °C 46.3 °F /  7.9 °C 29.85in /  1010.7hPa SSE 1.0mph /  1.6km/h 1.0mph /  1.6km/h 85% 0.00in /  0mm
04:07 51.0 °F /  10.6 °C 46.3 °F /  7.9 °C 29.85in /  1010.7hPa South 1.0mph /  1.6km/h 1.0mph /  1.6km/h 84% 0.00in /  0mm
04:12 51.4 °F /  10.8 °C 46.4 °F /  8 °C 29.85in /  1010.7hPa Calm   1.0mph /  1.6km/h 83% 0.00in /  0mm
04:17 51.6 °F /  10.9 °C 46.3 °F /  7.9 °C 29.85in /  1010.7hPa SSE 2.0mph /  3.2km/h 2.0mph /  3.2km/h 82% 0.00in /  0mm
04:22 51.9 °F /  11.1 °C 46.6 °F /  8.1 °C 29.85in /  1010.7hPa Calm   1.0mph /  1.6km/h 82% 0.00in /  0mm
04:27 52.2 °F /  11.2 °C 46.5 °F /  8.1 °C 29.85in /  1010.7hPa SW 1.0mph /  1.6km/h 2.0mph /  3.2km/h 81% 0.00in /  0mm
04:33 52.5 °F /  11.4 °C 46.5 °F /  8.1 °C 29.85in /  1010.7hPa WSW 1.0mph /  1.6km/h 2.0mph /  3.2km/h 80% 0.00in /  0mm
04:38 52.7 °F /  11.5 °C 46.7 °F /  8.2 °C 29.85in /  1010.7hPa Calm   1.0mph /  1.6km/h 80% 0.00in /  0mm
04:43 52.5 °F /  11.4 °C 46.5 °F /  8.1 °C 29.85in /  1010.7hPa WSW 1.0mph /  1.6km/h 1.0mph /  1.6km/h 80% 0.00in /  0mm
04:48 52.4 °F /  11.3 °C 46.4 °F /  8 °C 29.85in /  1010.7hPa Calm   1.0mph /  1.6km/h 80% 0.00in /  0mm
04:53 52.4 °F /  11.3 °C 46.4 °F /  8 °C 29.86in /  1011.1hPa SSW 1.0mph /  1.6km/h 1.0mph /  1.6km/h 80% 0.00in /  0mm
04:58 52.5 °F /  11.4 °C 46.5 °F /  8.1 °C 29.86in /  1011.1hPa Calm   1.0mph /  1.6km/h 80% 0.00in /  0mm
05:03 52.5 °F /  11.4 °C 46.5 °F /  8.1 °C 29.85in /  1010.7hPa South 1.0mph /  1.6km/h 2.0mph /  3.2km/h 80% 0.00in /  0mm
05:08 52.5 °F /  11.4 °C 46.8 °F /  8.2 °C 29.86in /  1011.1hPa SSE 2.0mph /  3.2km/h 2.0mph /  3.2km/h 81% 0.00in /  0mm
05:13 52.5 °F /  11.4 °C 46.8 °F /  8.2 °C 29.86in /  1011.1hPa SSE 2.0mph /  3.2km/h 2.0mph /  3.2km/h 81% 0.00in /  0mm
05:18 52.3 °F /  11.3 °C 47.0 °F /  8.3 °C 29.86in /  1011.1hPa SE 2.0mph /  3.2km/h 2.0mph /  3.2km/h 82% 0.00in /  0mm
05:23 52.2 °F /  11.2 °C 47.2 °F /  8.4 °C 29.86in /  1011.1hPa SE 1.0mph /  1.6km/h 2.0mph /  3.2km/h 83% 0.00in /  0mm
05:28 52.3 °F /  11.3 °C 47.0 °F /  8.3 °C 29.86in /  1011.1hPa SE 1.0mph /  1.6km/h 1.0mph /  1.6km/h 82% 0.00in /  0mm
05:33 52.5 °F /  11.4 °C 47.2 °F /  8.4 °C 29.86in /  1011.1hPa SE 1.0mph /  1.6km/h 1.0mph /  1.6km/h 82% 0.00in /  0mm
05:38 52.7 °F /  11.5 °C 47.4 °F /  8.6 °C 29.86in /  1011.1hPa SE 1.0mph /  1.6km/h 1.0mph /  1.6km/h 82% 0.00in /  0mm
05:43 52.7 °F /  11.5 °C 47.4 °F /  8.6 °C 29.86in /  1011.1hPa SSE 2.0mph /  3.2km/h 2.0mph /  3.2km/h 82% 0.00in /  0mm
05:48 52.7 °F /  11.5 °C 47.0 °F /  8.3 °C 29.85in /  1010.7hPa SSE 1.0mph /  1.6km/h 2.0mph /  3.2km/h 81% 0.00in /  0mm
05:53 52.7 °F /  11.5 °C 47.4 °F /  8.6 °C 29.86in /  1011.1hPa SSW 1.0mph /  1.6km/h 2.0mph /  3.2km/h 82% 0.00in /  0mm
05:58 52.6 °F /  11.4 °C 47.6 °F /  8.7 °C 29.86in /  1011.1hPa Calm   1.0mph /  1.6km/h 83% 0.00in /  0mm
06:03 52.5 °F /  11.4 °C 47.8 °F /  8.8 °C 29.86in /  1011.1hPa WSW 1.0mph /  1.6km/h 1.0mph /  1.6km/h 84% 0.00in /  0mm
06:08 52.6 °F /  11.4 °C 48.2 °F /  9 °C 29.86in /  1011.1hPa WSW 2.0mph /  3.2km/h 2.0mph /  3.2km/h 85% 0.00in /  0mm
06:13 52.7 °F /  11.5 °C 48.3 °F /  9.1 °C 29.86in /  1011.1hPa WSW 1.0mph /  1.6km/h 1.0mph /  1.6km/h 85% 0.00in /  0mm
06:18 52.7 °F /  11.5 °C 48.0 °F /  8.9 °C 29.86in /  1011.1hPa SW 2.0mph /  3.2km/h 2.0mph /  3.2km/h 84% 0.00in /  0mm
06:23 52.7 °F /  11.5 °C 48.0 °F /  8.9 °C 29.87in /  1011.4hPa WSW 2.0mph /  3.2km/h 2.0mph /  3.2km/h 84% 0.00in /  0mm
06:28 52.6 °F /  11.4 °C 47.9 °F /  8.8 °C 29.87in /  1011.4hPa WSW 1.0mph /  1.6km/h 2.0mph /  3.2km/h 84% 0.00in /  0mm
06:33 52.5 °F /  11.4 °C 47.8 °F /  8.8 °C 29.87in /  1011.4hPa WSW 2.0mph /  3.2km/h 2.0mph /  3.2km/h 84% 0.00in /  0mm
06:38 52.4 °F /  11.3 °C 48.0 °F /  8.9 °C 29.87in /  1011.4hPa Calm   1.0mph /  1.6km/h 85% 0.00in /  0mm
06:43 52.3 °F /  11.3 °C 47.9 °F /  8.8 °C 29.87in /  1011.4hPa West 1.0mph /  1.6km/h 3.0mph /  4.8km/h 85% 0.00in /  0mm
06:48 52.2 °F /  11.2 °C 47.8 °F /  8.8 °C 29.87in /  1011.4hPa Calm   2.0mph /  3.2km/h 85% 0.00in /  0mm
06:53 52.1 °F /  11.2 °C 47.7 °F /  8.7 °C 29.87in /  1011.4hPa Calm   1.0mph /  1.6km/h 85% 0.00in /  0mm
06:58 52.1 °F /  11.2 °C 47.7 °F /  8.7 °C 29.87in /  1011.4hPa Calm   1.0mph /  1.6km/h 85% 0.00in /  0mm
07:03 52.1 °F /  11.2 °C 47.7 °F /  8.7 °C 29.87in /  1011.4hPa SW 1.0mph /  1.6km/h 1.0mph /  1.6km/h 85% 0.00in /  0mm
07:08 52.0 °F /  11.1 °C 47.6 °F /  8.7 °C 29.87in /  1011.4hPa SSW 1.0mph /  1.6km/h 1.0mph /  1.6km/h 85% 0.00in /  0mm
07:13 51.9 °F /  11.1 °C 47.8 °F /  8.8 °C 29.87in /  1011.4hPa SW 1.0mph /  1.6km/h 1.0mph /  1.6km/h 86% 0.00in /  0mm
07:19 51.8 °F /  11 °C 47.8 °F /  8.8 °C 29.87in /  1011.4hPa SW 1.0mph /  1.6km/h 1.0mph /  1.6km/h 86% 0.00in /  0mm
07:24 51.8 °F /  11 °C 47.8 °F /  8.8 °C 29.87in /  1011.4hPa SW 1.0mph /  1.6km/h 1.0mph /  1.6km/h 86% 0.00in /  0mm
07:29 51.8 °F /  11 °C 47.8 °F /  8.8 °C 29.87in /  1011.4hPa Calm   1.0mph /  1.6km/h 86% 0.00in /  0mm
07:34 51.7 °F /  10.9 °C 47.7 °F /  8.7 °C 29.87in /  1011.4hPa Calm   1.0mph /  1.6km/h 86% 0.00in /  0mm
07:39 51.6 °F /  10.9 °C 47.6 °F /  8.7 °C 29.87in /  1011.4hPa Calm   1.0mph /  1.6km/h 86% 0.00in /  0mm
07:44 51.4 °F /  10.8 °C 47.7 °F /  8.7 °C 29.87in /  1011.4hPa Calm     87% 0.00in /  0mm
07:49 51.1 °F /  10.6 °C 47.4 °F /  8.6 °C 29.87in /  1011.4hPa Calm     87% 0.00in /  0mm
07:54 50.9 °F /  10.5 °C 47.2 °F /  8.4 °C 29.87in /  1011.4hPa Calm     87% 0.00in /  0mm
07:59 50.7 °F /  10.4 °C 47.3 °F /  8.5 °C 29.87in /  1011.4hPa Calm     88% 0.00in /  0mm
08:04 50.6 °F /  10.3 °C 47.2 °F /  8.4 °C 29.87in /  1011.4hPa SW 1.0mph /  1.6km/h 1.0mph /  1.6km/h 88% 0.00in /  0mm
08:09 50.5 °F /  10.3 °C 47.1 °F /  8.4 °C 29.87in /  1011.4hPa SW 1.0mph /  1.6km/h 1.0mph /  1.6km/h 88% 0.00in /  0mm
08:14 50.4 °F /  10.2 °C 47.0 °F /  8.3 °C 29.87in /  1011.4hPa Calm   1.0mph /  1.6km/h 88% 0.00in /  0mm
08:19 50.4 °F /  10.2 °C 47.3 °F /  8.5 °C 29.88in /  1011.7hPa SW 1.0mph /  1.6km/h 1.0mph /  1.6km/h 89% 0.00in /  0mm
08:24 50.5 °F /  10.3 °C 47.4 °F /  8.6 °C 29.88in /  1011.7hPa Calm     89% 0.00in /  0mm
08:29 50.8 °F /  10.4 °C 47.7 °F /  8.7 °C 29.89in /  1012.1hPa Calm   1.0mph /  1.6km/h 89% 0.00in /  0mm
08:34 51.0 °F /  10.6 °C 47.9 °F /  8.8 °C 29.89in /  1012.1hPa Calm   1.0mph /  1.6km/h 89% 0.00in /  0mm
08:39 51.2 °F /  10.7 °C 48.1 °F /  8.9 °C 29.89in /  1012.1hPa WSW 1.0mph /  1.6km/h 1.0mph /  1.6km/h 89% 0.00in /  0mm
08:44 51.3 °F /  10.7 °C 48.2 °F /  9 °C 29.89in /  1012.1hPa WSW 1.0mph /  1.6km/h 2.0mph /  3.2km/h 89% 0.00in /  0mm
08:49 51.5 °F /  10.8 °C 48.1 °F /  8.9 °C 29.89in /  1012.1hPa West 1.0mph /  1.6km/h 3.0mph /  4.8km/h 88% 0.00in /  0mm
08:54 51.6 °F /  10.9 °C 48.2 °F /  9 °C 29.90in /  1012.4hPa WSW 1.0mph /  1.6km/h 2.0mph /  3.2km/h 88% 0.00in /  0mm
08:59 51.6 °F /  10.9 °C 48.2 °F /  9 °C 29.90in /  1012.4hPa WSW 2.0mph /  3.2km/h 2.0mph /  3.2km/h 88% 0.00in /  0mm
09:04 51.8 °F /  11 °C 48.4 °F /  9.1 °C 29.90in /  1012.4hPa WSW 1.0mph /  1.6km/h 3.0mph /  4.8km/h 88% 0.00in /  0mm
09:09 52.2 °F /  11.2 °C 48.8 °F /  9.3 °C 29.90in /  1012.4hPa SW 2.0mph /  3.2km/h 3.0mph /  4.8km/h 88% 0.00in /  0mm
09:14 52.7 °F /  11.5 °C 48.6 °F /  9.2 °C 29.90in /  1012.4hPa West 4.0mph /  6.4km/h 5.0mph /  8km/h 86% 0.00in /  0mm
09:19 52.9 °F /  11.6 °C 48.5 °F /  9.2 °C 29.91in /  1012.8hPa WSW 2.0mph /  3.2km/h 4.0mph /  6.4km/h 85% 0.00in /  0mm
09:24 53.1 °F /  11.7 °C 48.4 °F /  9.1 °C 29.91in /  1012.8hPa West 3.0mph /  4.8km/h 5.0mph /  8km/h 84% 0.00in /  0mm
09:29 53.1 °F /  11.7 °C 48.4 °F /  9.1 °C 29.91in /  1012.8hPa WNW 4.0mph /  6.4km/h 5.0mph /  8km/h 84% 0.00in /  0mm
09:34 53.3 °F /  11.8 °C 48.9 °F /  9.4 °C 29.91in /  1012.8hPa West 1.0mph /  1.6km/h 5.0mph /  8km/h 85% 0.00in /  0mm
09:39 53.7 °F /  12.1 °C 49.0 °F /  9.4 °C 29.91in /  1012.8hPa WNW 4.0mph /  6.4km/h 5.0mph /  8km/h 84% 0.00in /  0mm
09:44 54.4 °F /  12.4 °C 49.0 °F /  9.4 °C 29.92in /  1013.1hPa WSW 3.0mph /  4.8km/h 6.0mph /  9.7km/h 82% 0.00in /  0mm
09:49 55.1 °F /  12.8 °C 49.4 °F /  9.7 °C 29.91in /  1012.8hPa WSW 3.0mph /  4.8km/h 5.0mph /  8km/h 81% 0.00in /  0mm
09:54 55.5 °F /  13.1 °C 49.4 °F /  9.7 °C 29.91in /  1012.8hPa South 3.0mph /  4.8km/h 10.0mph /  16.1km/h 80% 0.00in /  0mm
10:00 55.6 °F /  13.1 °C 48.9 °F /  9.4 °C 29.91in /  1012.8hPa SW 4.0mph /  6.4km/h 9.0mph /  14.5km/h 78% 0.00in /  0mm
10:05 55.5 °F /  13.1 °C 49.4 °F /  9.7 °C 29.90in /  1012.4hPa SW 4.0mph /  6.4km/h 8.0mph /  12.9km/h 80% 0.00in /  0mm
10:10 55.8 °F /  13.2 °C 49.4 °F /  9.7 °C 29.90in /  1012.4hPa WSW 4.0mph /  6.4km/h 6.0mph /  9.7km/h 79% 0.00in /  0mm
10:15 56.0 °F /  13.3 °C 49.2 °F /  9.6 °C 29.90in /  1012.4hPa WNW 5.0mph /  8km/h 7.0mph /  11.3km/h 78% 0.00in /  0mm
10:20 56.5 °F /  13.6 °C 49.7 °F /  9.8 °C 29.89in /  1012.1hPa SW 7.0mph /  11.3km/h 7.0mph /  11.3km/h 78% 0.00in /  0mm
10:25 56.7 °F /  13.7 °C 48.9 °F /  9.4 °C 29.90in /  1012.4hPa WSW 4.0mph /  6.4km/h 10.0mph /  16.1km/h 75% 0.00in /  0mm
10:30 56.8 °F /  13.8 °C 49.0 °F /  9.4 °C 29.89in /  1012.1hPa SW 5.0mph /  8km/h 11.0mph /  17.7km/h 75% 0.00in /  0mm
10:35 57.6 °F /  14.2 °C 49.4 °F /  9.7 °C 29.90in /  1012.4hPa WSW 9.0mph /  14.5km/h 9.0mph /  14.5km/h 74% 0.00in /  0mm
10:40 57.5 °F /  14.2 °C 49.3 °F /  9.6 °C 29.90in /  1012.4hPa West 10.0mph /  16.1km/h 11.0mph /  17.7km/h 74% 0.00in /  0mm
10:45 57.0 °F /  13.9 °C 48.8 °F /  9.3 °C 29.90in /  1012.4hPa WNW 5.0mph /  8km/h 11.0mph /  17.7km/h 74% 0.00in /  0mm
10:50 57.0 °F /  13.9 °C 49.5 °F /  9.7 °C 29.89in /  1012.1hPa West 3.0mph /  4.8km/h 7.0mph /  11.3km/h 76% 0.00in /  0mm
10:55 57.8 °F /  14.3 °C 49.9 °F /  9.9 °C 29.89in /  1012.1hPa SW 6.0mph /  9.7km/h 9.0mph /  14.5km/h 75% 0.00in /  0mm
11:00 58.4 °F /  14.7 °C 50.2 °F /  10.1 °C 29.89in /  1012.1hPa West 6.0mph /  9.7km/h 9.0mph /  14.5km/h 74% 0.00in /  0mm
11:05 58.5 °F /  14.7 °C 49.9 °F /  9.9 °C 29.89in /  1012.1hPa West 4.0mph /  6.4km/h 9.0mph /  14.5km/h 73% 0.00in /  0mm
11:10 58.7 °F /  14.8 °C 49.3 °F /  9.6 °C 29.89in /  1012.1hPa SSW 5.0mph /  8km/h 11.0mph /  17.7km/h 71% 0.00in /  0mm
11:15 59.0 °F /  15 °C 50.4 °F /  10.2 °C 29.89in /  1012.1hPa SSW 7.0mph /  11.3km/h 10.0mph /  16.1km/h 73% 0.00in /  0mm
11:20 59.6 °F /  15.3 °C 51.0 °F /  10.6 °C 29.89in /  1012.1hPa SSW 4.0mph /  6.4km/h 8.0mph /  12.9km/h 73% 0.00in /  0mm
11:25 60.1 °F /  15.6 °C 51.8 °F /  11 °C 29.88in /  1011.7hPa SW 11.0mph /  17.7km/h 13.0mph /  20.9km/h 74% 0.00in /  0mm
11:30 60.1 °F /  15.6 °C 49.9 °F /  9.9 °C 29.88in /  1011.7hPa SW 3.0mph /  4.8km/h 12.0mph /  19.3km/h 69% 0.00in /  0mm
11:35 60.5 °F /  15.8 °C 49.9 °F /  9.9 °C 29.88in /  1011.7hPa WSW 14.0mph /  22.5km/h 14.0mph /  22.5km/h 68% 0.00in /  0mm
11:40 60.1 °F /  15.6 °C 49.5 °F /  9.7 °C 29.88in /  1011.7hPa SW 6.0mph /  9.7km/h 13.0mph /  20.9km/h 68% 0.00in /  0mm
11:41 60.1 °F /  15.6 °C 49.9 °F /  9.9 °C 29.88in /  1011.7hPa WSW 8.0mph /  12.9km/h 13.0mph /  20.9km/h 69% 0.00in /  0mm
11:46 60.0 °F /  15.6 °C 49.8 °F /  9.9 °C 29.87in /  1011.4hPa WSW 6.0mph /  9.7km/h 10.0mph /  16.1km/h 69% 0.00in /  0mm
11:51 60.2 °F /  15.7 °C 49.6 °F /  9.8 °C 29.87in /  1011.4hPa WSW 4.0mph /  6.4km/h 11.0mph /  17.7km/h 68% 0.00in /  0mm
11:56 60.4 °F /  15.8 °C 50.2 °F /  10.1 °C 29.87in /  1011.4hPa SSW 7.0mph /  11.3km/h 11.0mph /  17.7km/h 69% 0.00in /  0mm
12:01 61.1 °F /  16.2 °C 50.5 °F /  10.3 °C 29.87in /  1011.4hPa SW 5.0mph /  8km/h 9.0mph /  14.5km/h 68% 0.00in /  0mm
12:06 60.9 °F /  16.1 °C 48.7 °F /  9.3 °C 29.88in /  1011.7hPa WSW 5.0mph /  8km/h 14.0mph /  22.5km/h 64% 0.00in /  0mm
12:11 60.9 °F /  16.1 °C 49.5 °F /  9.7 °C 29.87in /  1011.4hPa SSW 11.0mph /  17.7km/h 11.0mph /  17.7km/h 66% 0.00in /  0mm
12:16 60.7 °F /  15.9 °C 49.3 °F /  9.6 °C 29.87in /  1011.4hPa WSW 9.0mph /  14.5km/h 14.0mph /  22.5km/h 66% 0.00in /  0mm
12:21 61.1 °F /  16.2 °C 50.1 °F /  10.1 °C 29.87in /  1011.4hPa WSW 5.0mph /  8km/h 15.0mph /  24.1km/h 67% 0.00in /  0mm
12:26 61.1 °F /  16.2 °C 49.7 °F /  9.8 °C 29.87in /  1011.4hPa WSW 6.0mph /  9.7km/h 9.0mph /  14.5km/h 66% 0.00in /  0mm
12:31 61.4 °F /  16.3 °C 50.4 °F /  10.2 °C 29.86in /  1011.1hPa West 4.0mph /  6.4km/h 7.0mph /  11.3km/h 67% 0.00in /  0mm
12:36 62.7 °F /  17.1 °C 50.8 °F /  10.4 °C 29.87in /  1011.4hPa WSW 10.0mph /  16.1km/h 14.0mph /  22.5km/h 65% 0.00in /  0mm
12:41 62.5 °F /  16.9 °C 49.8 °F /  9.9 °C 29.87in /  1011.4hPa West 8.0mph /  12.9km/h 11.0mph /  17.7km/h 63% 0.00in /  0mm
12:46 61.8 °F /  16.6 °C 48.7 °F /  9.3 °C 29.87in /  1011.4hPa WSW 6.0mph /  9.7km/h 13.0mph /  20.9km/h 62% 0.00in /  0mm
12:51 61.6 °F /  16.4 °C 48.5 °F /  9.2 °C 29.86in /  1011.1hPa West 11.0mph /  17.7km/h 15.0mph /  24.1km/h 62% 0.00in /  0mm
12:56 61.8 °F /  16.6 °C 49.9 °F /  9.9 °C 29.86in /  1011.1hPa WSW 5.0mph /  8km/h 11.0mph /  17.7km/h 65% 0.00in /  0mm
13:01 62.3 °F /  16.8 °C 49.1 °F /  9.5 °C 29.86in /  1011.1hPa West 6.0mph /  9.7km/h 13.0mph /  20.9km/h 62% 0.00in /  0mm
13:06 62.4 °F /  16.9 °C 49.2 °F /  9.6 °C 29.86in /  1011.1hPa WSW 4.0mph /  6.4km/h 10.0mph /  16.1km/h 62% 0.00in /  0mm
13:11 62.5 °F /  16.9 °C 48.9 °F /  9.4 °C 29.85in /  1010.7hPa West 5.0mph /  8km/h 8.0mph /  12.9km/h 61% 0.00in /  0mm
13:16 62.8 °F /  17.1 °C 50.0 °F /  10 °C 29.85in /  1010.7hPa WSW 10.0mph /  16.1km/h 12.0mph /  19.3km/h 63% 0.00in /  0mm
13:21 63.5 °F /  17.5 °C 50.3 °F /  10.2 °C 29.85in /  1010.7hPa WSW 4.0mph /  6.4km/h 9.0mph /  14.5km/h 62% 0.00in /  0mm
13:26 63.6 °F /  17.6 °C 49.5 °F /  9.7 °C 29.85in /  1010.7hPa West 10.0mph /  16.1km/h 15.0mph /  24.1km/h 60% 0.00in /  0mm
13:32 63.4 °F /  17.4 °C 48.8 °F /  9.3 °C 29.85in /  1010.7hPa WSW 9.0mph /  14.5km/h 16.0mph /  25.7km/h 59% 0.00in /  0mm
13:37 63.3 °F /  17.4 °C 48.3 °F /  9.1 °C 29.85in /  1010.7hPa WNW 8.0mph /  12.9km/h 13.0mph /  20.9km/h 58% 0.00in /  0mm
13:42 63.8 °F /  17.7 °C 50.1 °F /  10.1 °C 29.84in /  1010.4hPa West 11.0mph /  17.7km/h 12.0mph /  19.3km/h 61% 0.00in /  0mm
13:47 64.5 °F /  18.1 °C 49.4 °F /  9.7 °C 29.84in /  1010.4hPa West 6.0mph /  9.7km/h 10.0mph /  16.1km/h 58% 0.00in /  0mm
13:52 64.6 °F /  18.1 °C 49.0 °F /  9.4 °C 29.84in /  1010.4hPa West 7.0mph /  11.3km/h 19.0mph /  30.6km/h 57% 0.00in /  0mm
13:57 64.9 °F /  18.3 °C 49.3 °F /  9.6 °C 29.84in /  1010.4hPa West 6.0mph /  9.7km/h 15.0mph /  24.1km/h 57% 0.00in /  0mm
14:02 64.7 °F /  18.2 °C 49.1 °F /  9.5 °C 29.83in /  1010hPa WSW 9.0mph /  14.5km/h 13.0mph /  20.9km/h 57% 0.00in /  0mm
14:07 64.2 °F /  17.9 °C 49.1 °F /  9.5 °C 29.83in /  1010hPa WSW 6.0mph /  9.7km/h 13.0mph /  20.9km/h 58% 0.00in /  0mm
14:12 63.6 °F /  17.6 °C 49.0 °F /  9.4 °C 29.83in /  1010hPa SW 12.0mph /  19.3km/h 13.0mph /  20.9km/h 59% 0.00in /  0mm
14:17 63.1 °F /  17.3 °C 49.0 °F /  9.4 °C 29.83in /  1010hPa West 9.0mph /  14.5km/h 12.0mph /  19.3km/h 60% 0.00in /  0mm
14:22 63.2 °F /  17.3 °C 49.1 °F /  9.5 °C 29.83in /  1010hPa NW 4.0mph /  6.4km/h 15.0mph /  24.1km/h 60% 0.00in /  0mm
14:27 63.5 °F /  17.5 °C 49.4 °F /  9.7 °C 29.83in /  1010hPa WSW 9.0mph /  14.5km/h 9.0mph /  14.5km/h 60% 0.00in /  0mm
14:32 63.7 °F /  17.6 °C 50.0 °F /  10 °C 29.83in /  1010hPa WNW 9.0mph /  14.5km/h 11.0mph /  17.7km/h 61% 0.00in /  0mm
14:37 63.3 °F /  17.4 °C 49.6 °F /  9.8 °C 29.83in /  1010hPa West 6.0mph /  9.7km/h 11.0mph /  17.7km/h 61% 0.00in /  0mm
14:42 62.9 °F /  17.2 °C 49.3 °F /  9.6 °C 29.83in /  1010hPa West 5.0mph /  8km/h 13.0mph /  20.9km/h 61% 0.00in /  0mm
14:47 62.5 °F /  16.9 °C 48.9 °F /  9.4 °C 29.84in /  1010.4hPa WNW 12.0mph /  19.3km/h 14.0mph /  22.5km/h 61% 0.00in /  0mm
14:52 61.4 °F /  16.3 °C 49.5 °F /  9.7 °C 29.83in /  1010hPa West 9.0mph /  14.5km/h 16.0mph /  25.7km/h 65% 0.00in /  0mm
14:57 61.4 °F /  16.3 °C 50.4 °F /  10.2 °C 29.83in /  1010hPa West 9.0mph /  14.5km/h 12.0mph /  19.3km/h 67% 0.00in /  0mm
15:02 61.9 °F /  16.6 °C 51.2 °F /  10.7 °C 29.83in /  1010hPa SW 10.0mph /  16.1km/h 12.0mph /  19.3km/h 68% 0.00in /  0mm
15:07 62.5 °F /  16.9 °C 52.6 °F /  11.4 °C 29.83in /  1010hPa WSW 11.0mph /  17.7km/h 14.0mph /  22.5km/h 70% 0.00in /  0mm
15:12 63.4 °F /  17.4 °C 53.1 °F /  11.7 °C 29.83in /  1010hPa SW 10.0mph /  16.1km/h 14.0mph /  22.5km/h 69% 0.00in /  0mm
15:17 63.1 °F /  17.3 °C 52.8 °F /  11.6 °C 29.82in /  1009.7hPa WSW 7.0mph /  11.3km/h 16.0mph /  25.7km/h 69% 0.00in /  0mm
15:22 63.3 °F /  17.4 °C 51.3 °F /  10.7 °C 29.82in /  1009.7hPa WSW 11.0mph /  17.7km/h 14.0mph /  22.5km/h 65% 0.00in /  0mm
15:27 64.0 °F /  17.8 °C 51.2 °F /  10.7 °C 29.82in /  1009.7hPa NW 11.0mph /  17.7km/h 16.0mph /  25.7km/h 63% 0.00in /  0mm
15:32 64.5 °F /  18.1 °C 52.5 °F /  11.4 °C 29.83in /  1010hPa WNW 6.0mph /  9.7km/h 13.0mph /  20.9km/h 65% 0.00in /  0mm
15:37 64.7 °F /  18.2 °C 51.4 °F /  10.8 °C 29.82in /  1009.7hPa WNW 11.0mph /  17.7km/h 14.0mph /  22.5km/h 62% 0.00in /  0mm
15:42 64.2 °F /  17.9 °C 50.9 °F /  10.5 °C 29.82in /  1009.7hPa WNW 15.0mph /  24.1km/h 15.0mph /  24.1km/h 62% 0.00in /  0mm
15:47 64.0 °F /  17.8 °C 51.6 °F /  10.9 °C 29.82in /  1009.7hPa WNW 6.0mph /  9.7km/h 9.0mph /  14.5km/h 64% 0.00in /  0mm
15:52 63.3 °F /  17.4 °C 50.9 °F /  10.5 °C 29.82in /  1009.7hPa WNW 6.0mph /  9.7km/h 11.0mph /  17.7km/h 64% 0.00in /  0mm
15:57 61.8 °F /  16.6 °C 49.5 °F /  9.7 °C 29.82in /  1009.7hPa WNW 14.0mph /  22.5km/h 19.0mph /  30.6km/h 64% 0.00in /  0mm
16:02 57.4 °F /  14.1 °C 49.5 °F /  9.7 °C 29.84in /  1010.4hPa NW 13.0mph /  20.9km/h 24.0mph /  38.6km/h 75% 1.30in /  33.02mm
16:07 53.1 °F /  11.7 °C 48.7 °F /  9.3 °C 29.83in /  1010hPa NW 8.0mph /  12.9km/h 14.0mph /  22.5km/h 85% 0.39in /  9.91mm
16:12 52.3 °F /  11.3 °C 48.9 °F /  9.4 °C 29.83in /  1010hPa WNW 9.0mph /  14.5km/h 12.0mph /  19.3km/h 88% 0.51in /  12.95mm
16:17 52.1 °F /  11.2 °C 49.3 °F /  9.6 °C 29.84in /  1010.4hPa WNW 8.0mph /  12.9km/h 10.0mph /  16.1km/h 90% 0.27in /  6.86mm
16:23 52.1 °F /  11.2 °C 49.6 °F /  9.8 °C 29.84in /  1010.4hPa WNW 2.0mph /  3.2km/h 11.0mph /  17.7km/h 91% 0.42in /  10.67mm
16:28 52.0 °F /  11.1 °C 49.8 °F /  9.9 °C 29.83in /  1010hPa NW 5.0mph /  8km/h 5.0mph /  8km/h 92% 0.18in /  4.57mm
16:33 52.2 °F /  11.2 °C 50.0 °F /  10 °C 29.83in /  1010hPa SW 1.0mph /  1.6km/h 6.0mph /  9.7km/h 92% 0.06in /  1.52mm
16:38 52.4 °F /  11.3 °C 50.4 °F /  10.2 °C 29.83in /  1010hPa West 2.0mph /  3.2km/h 4.0mph /  6.4km/h 93% 0.04in /  1.02mm
16:43 52.5 °F /  11.4 °C 50.5 °F /  10.3 °C 29.83in /  1010hPa WNW 4.0mph /  6.4km/h 4.0mph /  6.4km/h 93% 0.00in /  0mm
16:48 53.6 °F /  12 °C 51.9 °F /  11.1 °C 29.83in /  1010hPa WNW 3.0mph /  4.8km/h 3.0mph /  4.8km/h 94% 0.00in /  0mm
16:53 54.4 °F /  12.4 °C 52.4 °F /  11.3 °C 29.83in /  1010hPa WNW 4.0mph /  6.4km/h 4.0mph /  6.4km/h 93% 0.00in /  0mm
16:58 55.3 °F /  12.9 °C 53.3 °F /  11.8 °C 29.83in /  1010hPa NW 4.0mph /  6.4km/h 7.0mph /  11.3km/h 93% 0.00in /  0mm
17:03 56.0 °F /  13.3 °C 53.7 °F /  12.1 °C 29.83in /  1010hPa WNW 7.0mph /  11.3km/h 7.0mph /  11.3km/h 92% 0.00in /  0mm
17:08 56.6 °F /  13.7 °C 53.4 °F /  11.9 °C 29.83in /  1010hPa WNW 8.0mph /  12.9km/h 8.0mph /  12.9km/h 89% 0.00in /  0mm
17:13 57.4 °F /  14.1 °C 54.2 °F /  12.3 °C 29.83in /  1010hPa WNW 3.0mph /  4.8km/h 4.0mph /  6.4km/h 89% 0.00in /  0mm
17:19 58.0 °F /  14.4 °C 54.2 °F /  12.3 °C 29.83in /  1010hPa WNW 4.0mph /  6.4km/h 5.0mph /  8km/h 87% 0.00in /  0mm
17:24 58.4 °F /  14.7 °C 53.9 °F /  12.2 °C 29.83in /  1010hPa NW 5.0mph /  8km/h 7.0mph /  11.3km/h 85% 0.00in /  0mm
17:29 59.0 °F /  15 °C 53.5 °F /  11.9 °C 29.83in /  1010hPa WNW 9.0mph /  14.5km/h 12.0mph /  19.3km/h 82% 0.00in /  0mm
17:34 59.9 °F /  15.5 °C 54.4 °F /  12.4 °C 29.83in /  1010hPa WNW 11.0mph /  17.7km/h 11.0mph /  17.7km/h 82% 0.00in /  0mm
17:39 60.4 °F /  15.8 °C 54.2 °F /  12.3 °C 29.83in /  1010hPa WNW 10.0mph /  16.1km/h 12.0mph /  19.3km/h 80% 0.00in /  0mm
17:44 60.8 °F /  16 °C 54.3 °F /  12.4 °C 29.82in /  1009.7hPa NW 8.0mph /  12.9km/h 14.0mph /  22.5km/h 79% 0.00in /  0mm
17:49 61.3 °F /  16.3 °C 54.7 °F /  12.6 °C 29.83in /  1010hPa WSW 5.0mph /  8km/h 10.0mph /  16.1km/h 79% 0.00in /  0mm
17:54 61.8 °F /  16.6 °C 54.5 °F /  12.5 °C 29.83in /  1010hPa WSW 9.0mph /  14.5km/h 11.0mph /  17.7km/h 77% 0.00in /  0mm
17:59 62.1 °F /  16.7 °C 54.8 °F /  12.7 °C 29.83in /  1010hPa WNW 15.0mph /  24.1km/h 15.0mph /  24.1km/h 77% 0.00in /  0mm
18:04 62.2 °F /  16.8 °C 54.5 °F /  12.5 °C 29.83in /  1010hPa WNW 5.0mph /  8km/h 9.0mph /  14.5km/h 76% 0.00in /  0mm
18:09 62.6 °F /  17 °C 54.6 °F /  12.6 °C 29.83in /  1010hPa West 9.0mph /  14.5km/h 10.0mph /  16.1km/h 75% 0.00in /  0mm
18:14 63.1 °F /  17.3 °C 54.3 °F /  12.4 °C 29.83in /  1010hPa WNW 7.0mph /  11.3km/h 13.0mph /  20.9km/h 73% 0.00in /  0mm
18:19 63.4 °F /  17.4 °C 52.3 °F /  11.3 °C 29.83in /  1010hPa West 12.0mph /  19.3km/h 15.0mph /  24.1km/h 67% 0.00in /  0mm
18:24 63.4 °F /  17.4 °C 51.9 °F /  11.1 °C 29.83in /  1010hPa WNW 10.0mph /  16.1km/h 18.0mph /  29km/h 66% 0.00in /  0mm
18:29 63.4 °F /  17.4 °C 51.4 °F /  10.8 °C 29.83in /  1010hPa NW 14.0mph /  22.5km/h 16.0mph /  25.7km/h 65% 0.00in /  0mm
18:34 63.4 °F /  17.4 °C 51.4 °F /  10.8 °C 29.83in /  1010hPa West 6.0mph /  9.7km/h 15.0mph /  24.1km/h 65% 0.00in /  0mm
18:39 63.6 °F /  17.6 °C 51.6 °F /  10.9 °C 29.84in /  1010.4hPa WNW 8.0mph /  12.9km/h 12.0mph /  19.3km/h 65% 0.00in /  0mm
18:44 63.6 °F /  17.6 °C 50.8 °F /  10.4 °C 29.84in /  1010.4hPa WNW 8.0mph /  12.9km/h 13.0mph /  20.9km/h 63% 0.00in /  0mm
18:49 63.7 °F /  17.6 °C 50.9 °F /  10.5 °C 29.84in /  1010.4hPa NW 8.0mph /  12.9km/h 14.0mph /  22.5km/h 63% 0.00in /  0mm
18:54 63.7 °F /  17.6 °C 50.9 °F /  10.5 °C 29.84in /  1010.4hPa WNW 8.0mph /  12.9km/h 14.0mph /  22.5km/h 63% 0.00in /  0mm
18:59 63.8 °F /  17.7 °C 51.0 °F /  10.6 °C 29.83in /  1010hPa WNW 6.0mph /  9.7km/h 11.0mph /  17.7km/h 63% 0.00in /  0mm
19:04 63.9 °F /  17.7 °C 51.1 °F /  10.6 °C 29.84in /  1010.4hPa WNW 6.0mph /  9.7km/h 9.0mph /  14.5km/h 63% 0.00in /  0mm
19:09 63.9 °F /  17.7 °C 50.6 °F /  10.3 °C 29.84in /  1010.4hPa NW 11.0mph /  17.7km/h 14.0mph /  22.5km/h 62% 0.00in /  0mm
19:14 63.8 °F /  17.7 °C 51.0 °F /  10.6 °C 29.84in /  1010.4hPa NNW 5.0mph /  8km/h 10.0mph /  16.1km/h 63% 0.00in /  0mm
19:19 63.7 °F /  17.6 °C 50.9 °F /  10.5 °C 29.84in /  1010.4hPa NW 5.0mph /  8km/h 11.0mph /  17.7km/h 63% 0.00in /  0mm
19:24 63.7 °F /  17.6 °C 50.9 °F /  10.5 °C 29.84in /  1010.4hPa WNW 5.0mph /  8km/h 7.0mph /  11.3km/h 63% 0.00in /  0mm
19:30 63.7 °F /  17.6 °C 50.5 °F /  10.3 °C 29.84in /  1010.4hPa WNW 5.0mph /  8km/h 11.0mph /  17.7km/h 62% 0.00in /  0mm
19:35 63.5 °F /  17.5 °C 50.7 °F /  10.4 °C 29.85in /  1010.7hPa WNW 4.0mph /  6.4km/h 9.0mph /  14.5km/h 63% 0.00in /  0mm
19:40 63.2 °F /  17.3 °C 49.1 °F /  9.5 °C 29.85in /  1010.7hPa WNW 5.0mph /  8km/h 11.0mph /  17.7km/h 60% 0.00in /  0mm
19:41 63.2 °F /  17.3 °C 49.1 °F /  9.5 °C 29.85in /  1010.7hPa NW 11.0mph /  17.7km/h 11.0mph /  17.7km/h 60% 0.00in /  0mm
19:46 62.8 °F /  17.1 °C 48.7 °F /  9.3 °C 29.85in /  1010.7hPa NW 5.0mph /  8km/h 12.0mph /  19.3km/h 60% 0.00in /  0mm
19:51 62.2 °F /  16.8 °C 48.2 °F /  9 °C 29.86in /  1011.1hPa NW 6.0mph /  9.7km/h 12.0mph /  19.3km/h 60% 0.00in /  0mm
19:56 61.7 °F /  16.5 °C 48.6 °F /  9.2 °C 29.85in /  1010.7hPa NW 6.0mph /  9.7km/h 9.0mph /  14.5km/h 62% 0.00in /  0mm
20:01 61.3 °F /  16.3 °C 48.6 °F /  9.2 °C 29.85in /  1010.7hPa NW 5.0mph /  8km/h 9.0mph /  14.5km/h 63% 0.00in /  0mm
20:06 61.3 °F /  16.3 °C 48.6 °F /  9.2 °C 29.85in /  1010.7hPa NW 3.0mph /  4.8km/h 8.0mph /  12.9km/h 63% 0.00in /  0mm
20:11 61.0 °F /  16.1 °C 48.8 °F /  9.3 °C 29.85in /  1010.7hPa WNW 5.0mph /  8km/h 8.0mph /  12.9km/h 64% 0.00in /  0mm
20:16 60.8 °F /  16 °C 49.0 °F /  9.4 °C 29.86in /  1011.1hPa WNW 4.0mph /  6.4km/h 9.0mph /  14.5km/h 65% 0.00in /  0mm
20:21 60.5 °F /  15.8 °C 48.7 °F /  9.3 °C 29.86in /  1011.1hPa WNW 3.0mph /  4.8km/h 7.0mph /  11.3km/h 65% 0.00in /  0mm
20:26 60.1 °F /  15.6 °C 49.1 °F /  9.5 °C 29.86in /  1011.1hPa North 3.0mph /  4.8km/h 6.0mph /  9.7km/h 67% 0.00in /  0mm
20:31 59.5 °F /  15.3 °C 48.9 °F /  9.4 °C 29.86in /  1011.1hPa North 1.0mph /  1.6km/h 3.0mph /  4.8km/h 68% 0.00in /  0mm
20:36 59.2 °F /  15.1 °C 49.0 °F /  9.4 °C 29.86in /  1011.1hPa North 1.0mph /  1.6km/h 2.0mph /  3.2km/h 69% 0.00in /  0mm
20:41 58.9 °F /  14.9 °C 48.8 °F /  9.3 °C 29.87in /  1011.4hPa Calm     69% 0.00in /  0mm
20:46 58.4 °F /  14.7 °C 49.0 °F /  9.4 °C 29.87in /  1011.4hPa NNE 2.0mph /  3.2km/h 2.0mph /  3.2km/h 71% 0.00in /  0mm
20:51 58.2 °F /  14.6 °C 49.2 °F /  9.6 °C 29.87in /  1011.4hPa Calm   2.0mph /  3.2km/h 72% 0.00in /  0mm
20:56 57.9 °F /  14.4 °C 49.3 °F /  9.6 °C 29.87in /  1011.4hPa Calm     73% 0.00in /  0mm
21:01 57.3 °F /  14.1 °C 49.1 °F /  9.5 °C 29.87in /  1011.4hPa Calm     74% 0.00in /  0mm
21:06 56.7 °F /  13.7 °C 48.9 °F /  9.4 °C 29.87in /  1011.4hPa Calm     75% 0.00in /  0mm
21:11 55.9 °F /  13.3 °C 48.5 °F /  9.2 °C 29.88in /  1011.7hPa Calm     76% 0.00in /  0mm
21:16 55.3 °F /  12.9 °C 48.6 °F /  9.2 °C 29.88in /  1011.7hPa Calm     78% 0.00in /  0mm
21:21 54.7 °F /  12.6 °C 48.7 °F /  9.3 °C 29.88in /  1011.7hPa Calm     80% 0.00in /  0mm
21:26 54.4 °F /  12.4 °C 48.7 °F /  9.3 °C 29.89in /  1012.1hPa Calm     81% 0.00in /  0mm
21:31 54.6 °F /  12.6 °C 48.9 °F /  9.4 °C 29.89in /  1012.1hPa Calm   1.0mph /  1.6km/h 81% 0.00in /  0mm
21:36 54.7 °F /  12.6 °C 49.0 °F /  9.4 °C 29.89in /  1012.1hPa NNE 1.0mph /  1.6km/h 1.0mph /  1.6km/h 81% 0.00in /  0mm
21:41 54.7 °F /  12.6 °C 49.0 °F /  9.4 °C 29.89in /  1012.1hPa NNE 1.0mph /  1.6km/h 1.0mph /  1.6km/h 81% 0.00in /  0mm
21:46 54.8 °F /  12.7 °C 49.4 °F /  9.7 °C 29.89in /  1012.1hPa North 1.0mph /  1.6km/h 3.0mph /  4.8km/h 82% 0.00in /  0mm
21:51 54.8 °F /  12.7 °C 49.4 °F /  9.7 °C 29.90in /  1012.4hPa North 1.0mph /  1.6km/h 2.0mph /  3.2km/h 82% 0.00in /  0mm
21:57 54.7 °F /  12.6 °C 49.3 °F /  9.6 °C 29.90in /  1012.4hPa Calm   1.0mph /  1.6km/h 82% 0.00in /  0mm
22:02 54.5 °F /  12.5 °C 49.5 °F /  9.7 °C 29.90in /  1012.4hPa Calm   1.0mph /  1.6km/h 83% 0.00in /  0mm
22:07 54.2 °F /  12.3 °C 49.2 °F /  9.6 °C 29.90in /  1012.4hPa Calm     83% 0.00in /  0mm
22:12 54.1 °F /  12.3 °C 49.4 °F /  9.7 °C 29.90in /  1012.4hPa Calm     84% 0.00in /  0mm
22:17 53.9 °F /  12.2 °C 49.2 °F /  9.6 °C 29.90in /  1012.4hPa Calm     84% 0.00in /  0mm
22:22 53.6 °F /  12 °C 48.9 °F /  9.4 °C 29.90in /  1012.4hPa Calm     84% 0.00in /  0mm
22:27 53.1 °F /  11.7 °C 48.7 °F /  9.3 °C 29.90in /  1012.4hPa Calm     85% 0.00in /  0mm
22:32 52.8 °F /  11.6 °C 48.7 °F /  9.3 °C 29.90in /  1012.4hPa Calm     86% 0.00in /  0mm
22:37 52.8 °F /  11.6 °C 49.0 °F /  9.4 °C 29.90in /  1012.4hPa Calm     87% 0.00in /  0mm
22:42 52.6 °F /  11.4 °C 48.8 °F /  9.3 °C 29.90in /  1012.4hPa Calm     87% 0.00in /  0mm
22:47 52.3 °F /  11.3 °C 48.9 °F /  9.4 °C 29.90in /  1012.4hPa Calm     88% 0.00in /  0mm
22:52 52.6 °F /  11.4 °C 49.2 °F /  9.6 °C 29.90in /  1012.4hPa Calm     88% 0.00in /  0mm
22:57 52.8 °F /  11.6 °C 49.3 °F /  9.6 °C 29.90in /  1012.4hPa Calm     88% 0.00in /  0mm
23:02 53.0 °F /  11.7 °C 49.2 °F /  9.6 °C 29.90in /  1012.4hPa Calm   1.0mph /  1.6km/h 87% 0.00in /  0mm
23:07 52.8 °F /  11.6 °C 49.0 °F /  9.4 °C 29.90in /  1012.4hPa Calm   1.0mph /  1.6km/h 87% 0.00in /  0mm
23:12 52.8 °F /  11.6 °C 49.3 °F /  9.6 °C 29.90in /  1012.4hPa Calm   1.0mph /  1.6km/h 88% 0.00in /  0mm
23:17 52.8 °F /  11.6 °C 49.3 °F /  9.6 °C 29.90in /  1012.4hPa NNW 1.0mph /  1.6km/h 1.0mph /  1.6km/h 88% 0.00in /  0mm
23:22 52.8 °F /  11.6 °C 49.0 °F /  9.4 °C 29.90in /  1012.4hPa Calm   1.0mph /  1.6km/h 87% 0.00in /  0mm
23:27 52.3 °F /  11.3 °C 48.9 °F /  9.4 °C 29.90in /  1012.4hPa Calm     88% 0.00in /  0mm
23:32 52.1 °F /  11.2 °C 49.0 °F /  9.4 °C 29.91in /  1012.8hPa NNW 1.0mph /  1.6km/h 1.0mph /  1.6km/h 89% 0.00in /  0mm
23:38 52.1 °F /  11.2 °C 49.0 °F /  9.4 °C 29.91in /  1012.8hPa Calm     89% 0.00in /  0mm
23:43 51.9 °F /  11.1 °C 48.5 °F /  9.2 °C 29.90in /  1012.4hPa Calm     88% 0.00in /  0mm
23:48 51.4 °F /  10.8 °C 48.0 °F /  8.9 °C 29.90in /  1012.4hPa Calm     88% 0.00in /  0mm
23:53 51.2 °F /  10.7 °C 48.4 °F /  9.1 °C 29.90in /  1012.4hPa Calm     90% 0.00in /  0mm
23:59 50.9 °F /  10.5 °C 48.4 °F /  9.1 °C 29.90in /  1012.4hPa Calm     91% 0.00in /  0mm
Compliments of Weather Underground